Time;durP1;ratioP1;P1;durP2;ratioP2;P2;SDS_P1;SDS_P2;PMS_P1;PMS_P2;Temp;Humidity;BMP_temperature;BMP_pressure;BME280_temperature;BME280_humidity;BME280_pressure;Samples;Min_cycle;Max_cycle;Signal;HPM_P1;HPM_P2
2021/04/29 00:01:44;;;;;;;5.03;3.25;;;10.40;87.20;;;;;;4977346;28;20042;-88
2021/04/29 00:04:11;;;;;;;4.30;3.25;;;10.40;87.40;;;;;;4985998;28;20031;-88
2021/04/29 00:06:36;;;;;;;3.38;2.70;;;10.40;88.00;;;;;;4976242;28;20031;-86
2021/04/29 00:09:04;;;;;;;3.17;2.88;;;10.40;87.90;;;;;;4960501;28;20549;-87
2021/04/29 00:11:31;;;;;;;6.85;2.95;;;10.50;88.50;;;;;;4961530;28;20087;-89
2021/04/29 00:13:57;;;;;;;4.15;2.53;;;10.60;85.50;;;;;;4952523;28;20037;-89
2021/04/29 00:16:23;;;;;;;4.20;3.03;;;10.60;86.70;;;;;;4957374;28;20050;-89
2021/04/29 00:18:49;;;;;;;5.10;3.70;;;10.60;87.00;;;;;;4953666;28;20039;-89
2021/04/29 00:21:14;;;;;;;6.82;4.10;;;10.70;90.00;;;;;;4959455;28;20031;-89
2021/04/29 00:23:40;;;;;;;7.35;3.97;;;10.60;91.10;;;;;;4968375;28;20086;-89
2021/04/29 00:26:06;;;;;;;4.47;3.38;;;10.60;90.70;;;;;;4958514;28;20027;-89
2021/04/29 00:28:32;;;;;;;7.18;4.05;;;10.60;90.70;;;;;;4969731;28;20402;-89
2021/04/29 00:30:58;;;;;;;6.45;4.10;;;10.60;90.60;;;;;;4947308;28;20042;-89
2021/04/29 00:33:23;;;;;;;7.13;4.25;;;10.70;90.30;;;;;;4958534;28;20506;-89
2021/04/29 00:35:49;;;;;;;8.13;4.40;;;10.80;90.50;;;;;;4971821;28;20027;-88
2021/04/29 00:38:16;;;;;;;6.43;4.53;;;10.80;90.40;;;;;;4963782;28;20039;-89
2021/04/29 00:40:42;;;;;;;5.32;3.70;;;10.90;90.20;;;;;;4945375;29;20063;-89
2021/04/29 00:43:14;;;;;;;5.65;3.70;;;10.90;90.40;;;;;;4963705;28;20042;-88
2021/04/29 00:45:41;;;;;;;7.05;3.47;;;10.90;87.30;;;;;;4983528;28;20023;-88
2021/04/29 00:48:07;;;;;;;5.90;3.90;;;11.00;90.00;;;;;;4983036;28;20078;-89
2021/04/29 00:50:33;;;;;;;10.13;3.70;;;11.10;90.10;;;;;;4991395;28;20041;-89
2021/04/29 00:52:59;;;;;;;5.65;4.00;;;11.20;90.30;;;;;;4988967;28;20039;-88
2021/04/29 00:55:25;;;;;;;6.95;3.63;;;11.20;89.10;;;;;;4988364;28;20031;-88
2021/04/29 00:57:51;;;;;;;6.63;4.00;;;11.30;89.20;;;;;;4974917;28;20039;-90
2021/04/29 01:00:18;;;;;;;7.35;3.92;;;11.30;89.50;;;;;;4964064;28;20027;-88
2021/04/29 01:02:49;;;;;;;6.90;4.10;;;11.20;90.30;;;;;;4961293;28;20103;-88
2021/04/29 01:05:20;;;;;;;7.30;4.20;;;11.20;91.30;;;;;;4975757;28;20031;-89
2021/04/29 01:08:02;;;;;;;6.25;4.22;;;11.20;92.10;;;;;;4959447;28;20031;-88
2021/04/29 01:10:37;;;;;;;9.40;4.38;;;11.10;92.90;;;;;;4963348;28;20030;-89
2021/04/29 01:13:25;;;;;;;8.65;4.38;;;11.00;94.40;;;;;;4975159;28;20486;-89
2021/04/29 01:15:52;;;;;;;8.27;4.97;;;11.00;96.60;;;;;;4988220;28;20039;-89
2021/04/29 01:18:22;;;;;;;9.20;4.95;;;11.00;97.80;;;;;;4991316;28;20493;-89
2021/04/29 01:21:12;;;;;;;7.65;4.93;;;11.00;99.40;;;;;;4975216;28;20062;-89
2021/04/29 01:23:40;;;;;;;7.72;4.60;;;11.00;99.90;;;;;;4964473;28;20027;-89
2021/04/29 01:26:29;;;;;;;7.03;4.80;;;10.90;99.90;;;;;;4991078;28;20034;-89
2021/04/29 01:28:57;;;;;;;10.43;5.10;;;10.90;99.90;;;;;;4974639;28;20639;-89
2021/04/29 01:31:27;;;;;;;8.13;5.50;;;10.90;99.90;;;;;;4972181;28;20039;-89
2021/04/29 01:33:53;;;;;;;11.27;5.80;;;10.90;99.90;;;;;;4990679;28;20081;-89
2021/04/29 01:36:21;;;;;;;10.55;5.50;;;10.90;99.90;;;;;;4959914;28;20031;-89
2021/04/29 01:38:47;;;;;;;9.35;5.55;;;10.90;99.90;;;;;;4978647;28;20062;-89
2021/04/29 01:41:13;;;;;;;9.40;6.70;;;10.80;99.90;;;;;;4942244;29;20042;-89
2021/04/29 01:43:41;;;;;;;7.65;5.65;;;10.80;99.90;;;;;;4985736;28;20022;-90
2021/04/29 01:46:07;;;;;;;9.23;5.80;;;10.70;99.90;;;;;;4974362;28;20031;-89
2021/04/29 01:48:33;;;;;;;8.80;5.55;;;10.70;99.90;;;;;;4984606;28;20460;-90
2021/04/29 01:51:00;;;;;;;8.48;5.53;;;10.70;99.90;;;;;;4970102;28;20023;-89
2021/04/29 01:53:26;;;;;;;9.65;6.07;;;10.70;99.90;;;;;;4973383;28;20092;-89
2021/04/29 01:55:53;;;;;;;7.88;5.30;;;10.70;99.90;;;;;;4958544;28;20035;-90
2021/04/29 01:58:20;;;;;;;10.13;5.82;;;10.80;99.90;;;;;;4961981;28;20067;-89
2021/04/29 02:00:45;;;;;;;10.27;5.70;;;10.80;99.90;;;;;;4959640;28;20023;-89
2021/04/29 02:03:12;;;;;;;8.05;5.05;;;10.80;99.90;;;;;;4963146;28;20023;-91
2021/04/29 02:05:48;;;;;;;11.75;6.28;;;10.80;99.90;;;;;;4973196;28;20107;-89
2021/04/29 02:08:14;;;;;;;10.32;5.22;;;10.80;99.90;;;;;;4972911;28;20121;-89
2021/04/29 02:10:40;;;;;;;8.43;6.10;;;10.80;99.90;;;;;;4987980;28;20034;-89
2021/04/29 02:13:13;;;;;;;8.27;6.00;;;10.80;99.90;;;;;;4988340;28;20151;-89
2021/04/29 02:15:48;;;;;;;8.23;6.13;;;10.80;99.90;;;;;;4978318;28;20058;-89
2021/04/29 02:18:18;;;;;;;9.65;6.82;;;10.90;99.90;;;;;;4987515;28;20038;-90
2021/04/29 02:20:45;;;;;;;10.50;6.53;;;10.90;99.90;;;;;;4990074;28;20139;-89
2021/04/29 02:23:13;;;;;;;10.95;6.18;;;10.80;99.90;;;;;;4949913;28;20038;-89
2021/04/29 02:25:40;;;;;;;10.70;6.15;;;10.90;99.90;;;;;;4974202;28;20027;-89
2021/04/29 02:28:06;;;;;;;9.73;5.80;;;10.80;99.90;;;;;;4966434;28;20553;-89
2021/04/29 02:30:32;;;;;;;9.15;6.05;;;10.90;99.90;;;;;;4964620;28;20510;-89
2021/04/29 02:33:00;;;;;;;8.25;5.85;;;10.90;99.90;;;;;;4956618;28;20046;-89
2021/04/29 02:35:27;;;;;;;8.75;6.28;;;10.90;99.90;;;;;;4958812;28;20039;-88
2021/04/29 02:37:53;;;;;;;10.80;6.38;;;10.90;99.90;;;;;;4940868;28;20039;-90
2021/04/29 02:40:21;;;;;;;12.43;6.10;;;10.90;99.90;;;;;;4966079;28;20034;-88
2021/04/29 02:42:48;;;;;;;9.82;6.18;;;10.90;99.90;;;;;;4962718;28;20046;-89
2021/04/29 02:45:15;;;;;;;11.18;6.90;;;10.90;99.90;;;;;;4965241;28;20035;-89
2021/04/29 02:47:47;;;;;;;10.80;6.35;;;10.90;99.90;;;;;;4954685;28;20035;-88
2021/04/29 02:50:17;;;;;;;10.50;6.13;;;10.90;99.90;;;;;;4968170;28;20102;-88
2021/04/29 02:52:51;;;;;;;11.55;5.90;;;10.90;99.90;;;;;;4956425;28;20505;-88
2021/04/29 02:55:18;;;;;;;9.25;5.90;;;10.90;99.90;;;;;;4947978;28;20457;-91
2021/04/29 02:57:44;;;;;;;9.77;6.00;;;10.80;99.90;;;;;;4924219;29;20035;-89
2021/04/29 03:00:16;;;;;;;9.30;5.50;;;10.90;99.90;;;;;;4963125;28;20038;-90
2021/04/29 03:02:42;;;;;;;8.57;5.55;;;10.90;99.90;;;;;;4967253;28;20030;-89
2021/04/29 03:05:14;;;;;;;8.52;6.63;;;10.90;99.90;;;;;;4962427;28;20624;-88
2021/04/29 03:07:41;;;;;;;8.65;6.38;;;10.90;99.90;;;;;;4964966;28;20126;-89
2021/04/29 03:10:08;;;;;;;10.00;6.00;;;10.90;99.90;;;;;;4967871;28;20037;-89
2021/04/29 03:12:34;;;;;;;8.80;6.43;;;10.90;99.90;;;;;;4966846;28;20045;-88
2021/04/29 03:15:00;;;;;;;8.43;5.90;;;10.80;99.90;;;;;;4965286;28;20035;-88
2021/04/29 03:17:26;;;;;;;10.13;6.63;;;10.80;99.90;;;;;;4965879;28;20035;-88
2021/04/29 03:19:53;;;;;;;8.65;6.45;;;10.80;99.90;;;;;;4962374;28;20031;-89
2021/04/29 03:22:20;;;;;;;6.53;5.35;;;10.80;99.90;;;;;;4963291;28;20034;-88
2021/04/29 03:24:47;;;;;;;8.00;5.80;;;10.80;99.90;;;;;;4959494;28;20394;-88
2021/04/29 03:27:13;;;;;;;7.28;5.65;;;10.80;99.90;;;;;;4970134;28;20041;-89
2021/04/29 03:29:39;;;;;;;8.32;5.97;;;10.80;99.90;;;;;;4965379;28;20134;-88
2021/04/29 03:32:05;;;;;;;8.60;6.18;;;10.80;99.90;;;;;;4967805;28;20034;-89
2021/04/29 03:34:31;;;;;;;9.55;6.68;;;10.80;99.90;;;;;;4964534;28;20031;-89
2021/04/29 03:36:56;;;;;;;9.65;6.25;;;10.70;99.90;;;;;;4970752;28;20045;-89
2021/04/29 03:39:22;;;;;;;9.68;6.50;;;10.80;99.90;;;;;;4943525;28;20031;-89
2021/04/29 03:41:48;;;;;;;11.45;6.28;;;10.70;99.90;;;;;;4962289;28;20033;-89
2021/04/29 03:44:14;;;;;;;10.40;6.28;;;10.70;99.90;;;;;;4956763;28;20482;-88
2021/04/29 03:46:39;;;;;;;10.68;6.25;;;10.60;99.90;;;;;;4957583;28;20034;-90
2021/04/29 03:49:05;;;;;;;7.75;5.95;;;10.60;99.90;;;;;;4986458;28;20039;-88
2021/04/29 03:51:31;;;;;;;9.15;5.80;;;10.60;99.90;;;;;;4957168;28;20039;-89
2021/04/29 03:53:58;;;;;;;8.13;5.80;;;10.60;99.90;;;;;;4933200;28;20035;-89
2021/04/29 03:56:24;;;;;;;8.68;5.38;;;10.60;99.90;;;;;;4966582;28;20031;-89
2021/04/29 03:58:49;;;;;;;8.80;6.45;;;10.60;99.90;;;;;;4938776;28;20510;-89
2021/04/29 04:01:15;;;;;;;10.02;5.85;;;10.60;99.90;;;;;;4962068;28;20135;-89
2021/04/29 04:03:41;;;;;;;10.63;6.07;;;10.60;99.90;;;;;;4939653;28;20033;-89
2021/04/29 04:06:06;;;;;;;8.43;5.72;;;10.60;99.90;;;;;;4951918;28;20027;-90
2021/04/29 04:09:08;;;;;;;7.72;5.45;;;10.60;99.90;;;;;;4942690;28;20556;-88
2021/04/29 04:11:33;;;;;;;9.30;5.82;;;10.60;99.90;;;;;;4978379;28;20508;-89
2021/04/29 04:13:59;;;;;;;7.30;5.63;;;10.60;99.90;;;;;;4984270;28;20031;-89
2021/04/29 04:16:29;;;;;;;6.75;5.60;;;10.60;99.90;;;;;;4962917;28;20033;-89
2021/04/29 04:18:56;;;;;;;9.38;5.70;;;10.60;99.90;;;;;;4964970;28;20082;-89
2021/04/29 04:21:22;;;;;;;9.93;6.43;;;10.60;99.90;;;;;;4972536;28;20118;-89
2021/04/29 04:23:47;;;;;;;8.30;6.30;;;10.60;99.90;;;;;;4969882;28;20129;-88
2021/04/29 04:26:14;;;;;;;8.73;6.18;;;10.70;99.90;;;;;;4973846;28;20078;-89
2021/04/29 04:28:40;;;;;;;10.65;6.45;;;10.70;99.90;;;;;;4971313;28;20466;-89
2021/04/29 04:31:05;;;;;;;9.00;6.75;;;10.70;99.90;;;;;;4969935;28;20126;-88
2021/04/29 04:33:31;;;;;;;10.52;7.50;;;10.70;99.90;;;;;;4960739;28;20114;-90
2021/04/29 04:35:57;;;;;;;12.68;6.95;;;10.70;99.90;;;;;;4947509;28;20126;-88
2021/04/29 04:38:22;;;;;;;10.70;6.63;;;10.70;99.90;;;;;;4941475;28;20371;-89
2021/04/29 04:40:48;;;;;;;11.95;6.97;;;10.70;99.90;;;;;;4968720;28;20093;-89
2021/04/29 04:43:14;;;;;;;9.25;6.47;;;10.70;99.90;;;;;;4967583;28;20053;-88
2021/04/29 04:45:43;;;;;;;11.88;7.38;;;10.70;99.90;;;;;;4965198;28;20094;-88
2021/04/29 04:48:10;;;;;;;8.55;6.70;;;10.70;99.90;;;;;;4975344;28;20038;-89
2021/04/29 04:50:36;;;;;;;10.27;6.75;;;10.70;99.90;;;;;;4995758;28;20041;-88
2021/04/29 04:53:02;;;;;;;11.43;7.20;;;10.70;99.90;;;;;;4959371;28;20410;-88
2021/04/29 04:55:28;;;;;;;11.13;7.43;;;10.70;99.90;;;;;;4988107;28;20031;-88
2021/04/29 04:57:54;;;;;;;9.85;7.15;;;10.80;99.90;;;;;;4983740;28;20532;-88
2021/04/29 05:00:20;;;;;;;12.75;7.47;;;10.70;99.90;;;;;;4960621;28;20042;-89
2021/04/29 05:02:46;;;;;;;10.10;7.35;;;10.70;99.90;;;;;;4952230;28;20034;-88
2021/04/29 05:05:13;;;;;;;12.20;7.75;;;10.80;99.90;;;;;;4966785;28;20477;-88
2021/04/29 05:07:38;;;;;;;11.73;6.20;;;10.90;99.90;;;;;;4982817;28;20059;-88
2021/04/29 05:10:04;;;;;;;10.57;7.82;;;10.90;99.90;;;;;;4948815;28;20034;-88
2021/04/29 05:12:30;;;;;;;10.90;7.43;;;10.90;99.90;;;;;;4956837;28;20032;-88
2021/04/29 05:14:56;;;;;;;10.63;7.13;;;10.90;99.90;;;;;;4988851;28;20042;-88
2021/04/29 05:17:21;;;;;;;8.55;6.57;;;10.90;99.90;;;;;;4985047;28;20042;-89
2021/04/29 05:19:47;;;;;;;11.23;7.68;;;10.90;99.90;;;;;;4981716;28;20493;-88
2021/04/29 05:22:15;;;;;;;10.80;7.00;;;10.90;99.90;;;;;;4989564;28;20023;-90
2021/04/29 05:24:42;;;;;;;8.98;5.95;;;11.00;99.90;;;;;;4965054;28;20027;-89
2021/04/29 05:27:08;;;;;;;8.35;6.53;;;11.00;99.90;;;;;;4967351;28;20050;-89
2021/04/29 05:29:33;;;;;;;11.02;6.70;;;11.10;99.90;;;;;;4966004;28;20026;-88
2021/04/29 05:31:59;;;;;;;11.98;7.53;;;11.10;99.90;;;;;;4968061;28;20406;-89
2021/04/29 05:34:25;;;;;;;12.13;7.28;;;11.20;99.90;;;;;;4934331;28;20069;-88
2021/04/29 05:36:51;;;;;;;11.35;7.68;;;11.30;99.90;;;;;;4964367;28;20114;-88
2021/04/29 05:39:16;;;;;;;10.60;7.72;;;11.40;99.90;;;;;;4948185;28;20031;-88
2021/04/29 05:41:42;;;;;;;10.80;7.97;;;11.60;99.90;;;;;;4966101;28;20122;-88
2021/04/29 05:44:08;;;;;;;12.27;7.45;;;11.80;99.90;;;;;;4970097;28;20073;-88
2021/04/29 05:46:34;;;;;;;13.30;8.35;;;12.00;99.90;;;;;;4962832;28;20046;-90
2021/04/29 05:49:00;;;;;;;10.60;8.02;;;12.00;99.90;;;;;;4962871;28;20437;-88
2021/04/29 05:51:28;;;;;;;10.60;7.97;;;12.10;99.90;;;;;;4963046;28;20162;-90
2021/04/29 05:53:54;;;;;;;14.13;8.23;;;12.10;99.90;;;;;;4967035;28;20035;-88
2021/04/29 05:56:19;;;;;;;13.02;8.05;;;12.10;99.90;;;;;;4961038;28;20043;-89
2021/04/29 05:58:45;;;;;;;13.15;7.40;;;12.00;99.90;;;;;;4969217;28;20409;-88
2021/04/29 06:01:11;;;;;;;13.75;7.85;;;12.00;99.90;;;;;;4984864;28;20121;-89
2021/04/29 06:03:37;;;;;;;13.00;7.53;;;11.90;99.90;;;;;;4973203;28;20505;-89
2021/04/29 06:06:03;;;;;;;11.95;8.07;;;11.90;99.90;;;;;;4984920;28;20094;-89
2021/04/29 06:08:29;;;;;;;11.25;7.10;;;11.80;99.90;;;;;;4958174;28;20126;-88
2021/04/29 06:10:55;;;;;;;14.30;8.07;;;11.70;99.90;;;;;;4991511;28;20122;-88
2021/04/29 06:13:21;;;;;;;12.48;8.10;;;11.70;99.90;;;;;;4973639;28;20045;-89
2021/04/29 06:15:46;;;;;;;11.02;7.35;;;11.70;99.90;;;;;;4989870;28;20039;-89
2021/04/29 06:18:12;;;;;;;11.20;7.65;;;11.70;99.90;;;;;;4980114;28;20054;-89
2021/04/29 06:20:38;;;;;;;13.00;7.85;;;11.70;99.90;;;;;;4975540;28;20058;-89
2021/04/29 06:23:04;;;;;;;10.13;6.93;;;11.80;99.90;;;;;;4970323;28;20445;-88
2021/04/29 06:25:29;;;;;;;9.57;7.32;;;11.70;99.90;;;;;;4971226;28;20394;-88
2021/04/29 06:27:57;;;;;;;11.88;6.50;;;11.70;99.90;;;;;;4955263;28;20113;-89
2021/04/29 06:30:23;;;;;;;9.20;6.18;;;11.80;99.90;;;;;;4955121;28;20046;-88
2021/04/29 06:32:49;;;;;;;11.20;6.07;;;11.80;99.90;;;;;;4982430;28;20093;-89
2021/04/29 06:35:14;;;;;;;9.90;6.07;;;11.80;99.90;;;;;;4970522;28;20138;-88
2021/04/29 06:37:41;;;;;;;7.55;5.28;;;11.90;99.90;;;;;;4957071;28;20486;-89
2021/04/29 06:40:07;;;;;;;11.20;6.03;;;11.90;99.90;;;;;;4978687;28;20030;-90
2021/04/29 06:42:33;;;;;;;10.93;6.03;;;11.90;99.90;;;;;;4947240;28;20031;-89
2021/04/29 06:44:59;;;;;;;8.35;6.13;;;11.90;99.90;;;;;;4964540;28;20033;-89
2021/04/29 06:47:27;;;;;;;7.82;6.00;;;11.90;99.90;;;;;;4971452;28;20038;-90
2021/04/29 06:49:54;;;;;;;8.45;6.22;;;11.80;99.90;;;;;;4987697;28;20501;-90
2021/04/29 06:52:20;;;;;;;8.90;6.05;;;11.80;99.90;;;;;;4961247;28;20110;-89
2021/04/29 06:54:47;;;;;;;8.77;5.95;;;11.70;99.90;;;;;;4964304;28;20058;-88
2021/04/29 06:57:14;;;;;;;8.32;5.65;;;11.70;99.90;;;;;;4962380;28;20063;-88
2021/04/29 06:59:40;;;;;;;11.43;6.47;;;11.70;99.90;;;;;;4951640;28;20045;-88
2021/04/29 07:02:06;;;;;;;7.18;5.25;;;11.80;99.90;;;;;;4989829;28;20039;-87
2021/04/29 07:04:32;;;;;;;6.85;4.95;;;11.80;99.90;;;;;;4989660;28;20033;-88
2021/04/29 07:07:08;;;;;;;9.15;5.60;;;11.70;99.90;;;;;;4987159;28;20035;-88
2021/04/29 07:09:33;;;;;;;7.80;5.18;;;11.80;99.90;;;;;;4973747;28;20368;-88
2021/04/29 07:11:59;;;;;;;8.07;4.88;;;11.90;99.90;;;;;;4956662;28;20114;-87
2021/04/29 07:14:25;;;;;;;5.85;5.13;;;12.00;99.90;;;;;;4969669;28;20031;-89
2021/04/29 07:16:50;;;;;;;7.18;4.68;;;12.00;99.90;;;;;;4971890;28;20031;-87
2021/04/29 07:19:16;;;;;;;8.05;4.95;;;12.10;99.90;;;;;;4972302;28;20039;-89
2021/04/29 07:21:42;;;;;;;6.60;4.80;;;12.30;99.90;;;;;;4965846;28;20050;-88
2021/04/29 07:24:08;;;;;;;6.72;4.20;;;12.30;99.90;;;;;;4972599;28;20406;-89
2021/04/29 07:26:34;;;;;;;5.63;4.13;;;12.40;99.90;;;;;;4984198;28;20039;-88
2021/04/29 07:29:02;;;;;;;8.50;4.78;;;12.50;99.90;;;;;;4970228;28;20039;-87
2021/04/29 07:31:28;;;;;;;6.05;4.57;;;12.60;99.90;;;;;;4985659;28;20118;-90
2021/04/29 07:33:53;;;;;;;8.45;4.07;;;12.60;99.90;;;;;;4983607;28;20191;-89
2021/04/29 07:36:19;;;;;;;6.32;4.43;;;12.70;99.90;;;;;;4988776;28;20490;-89
2021/04/29 07:38:45;;;;;;;6.95;4.60;;;12.60;99.90;;;;;;4988480;28;20027;-89
2021/04/29 07:41:11;;;;;;;5.32;4.10;;;12.70;99.90;;;;;;4987925;28;20027;-90
2021/04/29 07:43:37;;;;;;;5.47;4.47;;;12.70;99.90;;;;;;4982134;28;20023;-89
2021/04/29 07:46:03;;;;;;;6.07;4.70;;;12.80;99.90;;;;;;4988000;28;20501;-88
2021/04/29 07:48:28;;;;;;;7.75;4.60;;;12.80;99.90;;;;;;4977771;28;20058;-89
2021/04/29 07:51:02;;;;;;;6.60;4.20;;;12.90;99.90;;;;;;4970055;28;20039;-89
2021/04/29 07:53:28;;;;;;;5.75;3.97;;;13.00;99.90;;;;;;4963992;28;20530;-89
2021/04/29 07:55:54;;;;;;;5.05;3.78;;;13.10;99.90;;;;;;4962309;28;20070;-89
2021/04/29 07:58:20;;;;;;;5.78;4.13;;;13.20;99.90;;;;;;4963761;28;20053;-90
2021/04/29 08:00:46;;;;;;;8.32;4.07;;;13.20;99.90;;;;;;4961254;28;20022;-88
2021/04/29 08:03:12;;;;;;;7.28;4.22;;;13.30;99.90;;;;;;4965903;28;20037;-88
2021/04/29 08:05:37;;;;;;;6.43;3.88;;;13.30;99.90;;;;;;4959250;28;20023;-89
2021/04/29 08:08:04;;;;;;;6.55;3.95;;;13.30;99.90;;;;;;4962844;28;20041;-89
2021/04/29 08:10:29;;;;;;;5.35;3.58;;;13.40;99.90;;;;;;4963763;28;20046;-88
2021/04/29 08:12:55;;;;;;;4.32;3.67;;;13.50;99.90;;;;;;4952652;28;20057;-89
2021/04/29 08:15:21;;;;;;;4.68;3.33;;;13.60;99.90;;;;;;4967878;28;20039;-89
2021/04/29 08:17:46;;;;;;;4.55;3.33;;;13.80;99.90;;;;;;4966511;28;20627;-89
2021/04/29 08:20:13;;;;;;;5.38;3.28;;;13.90;99.90;;;;;;4977714;28;20027;-88
2021/04/29 08:22:39;;;;;;;6.10;2.95;;;14.00;99.90;;;;;;4962687;28;20032;-90
2021/04/29 08:25:05;;;;;;;6.13;3.13;;;14.10;99.90;;;;;;4964990;28;20082;-91
2021/04/29 08:27:32;;;;;;;3.72;3.08;;;14.20;99.90;;;;;;4944431;28;20031;-89
2021/04/29 08:29:57;;;;;;;4.63;3.35;;;14.40;99.90;;;;;;4958923;28;20031;-89
2021/04/29 08:32:23;;;;;;;4.68;2.85;;;14.50;99.90;;;;;;4960783;28;20031;-88
2021/04/29 08:34:49;;;;;;;3.10;2.45;;;14.70;99.90;;;;;;4961745;28;20055;-88
2021/04/29 08:37:17;;;;;;;3.55;2.88;;;14.70;99.90;;;;;;4947617;28;20023;-88
2021/04/29 08:39:44;;;;;;;5.35;3.08;;;14.80;99.90;;;;;;4958830;28;20027;-89
2021/04/29 08:42:13;;;;;;;4.72;3.00;;;14.90;99.90;;;;;;4948472;28;20035;-88
2021/04/29 08:44:38;;;;;;;4.95;3.10;;;14.80;99.90;;;;;;4983261;28;20033;-88
2021/04/29 08:47:04;;;;;;;4.38;2.90;;;14.80;99.90;;;;;;4965534;28;20121;-89
2021/04/29 08:49:31;;;;;;;3.72;2.80;;;14.70;99.90;;;;;;4952743;28;20143;-90
2021/04/29 08:51:57;;;;;;;3.33;2.85;;;14.60;99.90;;;;;;4969712;28;20070;-89
2021/04/29 08:54:23;;;;;;;2.70;2.33;;;14.60;99.90;;;;;;4966283;28;20409;-87
2021/04/29 08:56:50;;;;;;;3.78;2.70;;;14.60;99.90;;;;;;4964351;28;20039;-88
2021/04/29 08:59:15;;;;;;;4.55;2.95;;;14.60;99.90;;;;;;4966539;28;20155;-87
2021/04/29 09:01:46;;;;;;;4.25;2.40;;;14.80;99.90;;;;;;4963600;28;20031;-87
2021/04/29 09:04:17;;;;;;;6.80;3.47;;;15.00;99.90;;;;;;4964255;28;20130;-88
2021/04/29 09:06:47;;;;;;;2.75;2.25;;;15.20;99.90;;;;;;4982723;28;20031;-88
2021/04/29 09:09:14;;;;;;;4.38;2.20;;;15.40;99.90;;;;;;4982612;28;20054;-88
2021/04/29 09:11:57;;;;;;;3.75;3.25;;;15.50;99.90;;;;;;4980377;28;20030;-88
2021/04/29 09:14:33;;;;;;;3.70;3.05;;;15.40;99.10;;;;;;4987637;28;20074;-87
2021/04/29 09:16:59;;;;;;;3.33;2.53;;;15.30;98.20;;;;;;4971955;28;20389;-87
2021/04/29 09:19:28;;;;;;;4.85;3.13;;;15.10;98.30;;;;;;4988435;28;20023;-88
2021/04/29 09:21:55;;;;;;;5.97;2.95;;;14.90;98.90;;;;;;4981748;28;20777;-87
2021/04/29 09:24:36;;;;;;;4.22;2.67;;;14.70;98.80;;;;;;4981305;28;20073;-88
2021/04/29 09:27:10;;;;;;;4.25;3.20;;;14.60;99.90;;;;;;4974071;28;20038;-88
2021/04/29 09:29:36;;;;;;;3.72;3.00;;;14.70;99.90;;;;;;4989711;28;20556;-88
2021/04/29 09:32:02;;;;;;;5.70;3.13;;;14.80;99.90;;;;;;4946291;28;20031;-88
2021/04/29 09:34:38;;;;;;;4.47;2.95;;;14.90;99.90;;;;;;4949355;28;20050;-88
2021/04/29 09:37:04;;;;;;;4.07;2.80;;;15.00;99.90;;;;;;4973345;28;20038;-87
2021/04/29 09:39:33;;;;;;;4.25;2.53;;;15.20;99.30;;;;;;4966991;28;20031;-89
2021/04/29 09:41:58;;;;;;;3.95;2.67;;;15.40;97.20;;;;;;4962628;28;20027;-89
2021/04/29 09:44:25;;;;;;;3.67;2.60;;;15.50;97.20;;;;;;4966755;28;20689;-88
2021/04/29 09:50:40;;;;;;;4.13;2.72;;;15.70;96.20;;;;;;4968699;28;20106;-89
2021/04/29 09:53:08;;;;;;;4.07;2.88;;;15.50;96.90;;;;;;4971340;28;20106;-87
2021/04/29 09:55:38;;;;;;;3.67;2.70;;;15.50;98.40;;;;;;4976562;28;20050;-88
2021/04/29 09:58:17;;;;;;;4.55;2.97;;;15.60;96.80;;;;;;4970149;28;20482;-88
2021/04/29 10:00:48;;;;;;;3.38;2.50;;;15.60;97.40;;;;;;4972297;28;20046;-89
2021/04/29 10:03:15;;;;;;;3.92;2.67;;;15.80;96.20;;;;;;4968323;28;20549;-90
2021/04/29 10:05:42;;;;;;;1.92;1.58;;;16.00;97.50;;;;;;4965933;28;20027;-88
2021/04/29 10:08:12;;;;;;;3.58;2.40;;;16.20;97.30;;;;;;4968264;28;20058;-89
2021/04/29 10:10:41;;;;;;;3.63;2.30;;;16.40;95.90;;;;;;4976561;28;20035;-89
2021/04/29 10:13:07;;;;;;;2.42;2.00;;;16.50;93.90;;;;;;4959827;28;20031;-88
2021/04/29 10:15:39;;;;;;;2.92;2.30;;;16.70;93.60;;;;;;4982295;28;20473;-88
2021/04/29 10:18:14;;;;;;;4.32;1.92;;;16.80;92.30;;;;;;4980487;28;20046;-89
2021/04/29 10:20:46;;;;;;;2.13;1.92;;;16.80;91.70;;;;;;4973094;28;20027;-88
2021/04/29 10:23:17;;;;;;;2.33;2.10;;;16.70;91.80;;;;;;4977871;28;20049;-87
2021/04/29 10:25:49;;;;;;;2.75;2.08;;;16.60;92.70;;;;;;4961621;28;20474;-88
2021/04/29 10:28:15;;;;;;;3.83;2.03;;;16.60;91.80;;;;;;4957374;28;20141;-89
2021/04/29 10:30:41;;;;;;;2.10;1.90;;;16.70;91.80;;;;;;4958395;28;20027;-90
2021/04/29 10:33:15;;;;;;;2.08;1.88;;;16.90;91.00;;;;;;4957952;28;20033;-88
2021/04/29 10:36:00;;;;;;;1.60;1.50;;;17.00;90.50;;;;;;4962173;28;20174;-89
2021/04/29 10:38:35;;;;;;;3.92;2.28;;;17.10;91.60;;;;;;4963880;28;20069;-89
2021/04/29 10:41:02;;;;;;;4.53;1.60;;;17.20;87.30;;;;;;4985044;28;20039;-88
2021/04/29 10:43:35;;;;;;;1.50;1.40;;;17.20;90.40;;;;;;4969289;28;20031;-89
2021/04/29 10:46:04;;;;;;;2.83;1.70;;;17.20;88.00;;;;;;4948512;28;20062;-90
2021/04/29 10:48:50;;;;;;;1.48;1.35;;;17.20;87.00;;;;;;4969287;28;20066;-89
2021/04/29 10:51:19;;;;;;;2.38;1.27;;;17.20;84.60;;;;;;4973865;28;20050;-89
2021/04/29 10:53:46;;;;;;;1.73;1.40;;;17.30;86.20;;;;;;4973640;28;20038;-88
2021/04/29 10:56:15;;;;;;;2.25;1.52;;;17.30;81.30;;;;;;4929403;28;20030;-88
2021/04/29 10:58:41;;;;;;;5.15;1.60;;;17.40;79.60;;;;;;4968856;28;20478;-90
2021/04/29 11:01:13;;;;;;;2.67;1.40;;;17.40;78.00;;;;;;4967818;28;20594;-87
2021/04/29 11:03:41;;;;;;;2.05;1.70;;;17.40;78.00;;;;;;4973611;28;20037;-89
2021/04/29 11:06:11;;;;;;;2.92;1.80;;;17.40;77.50;;;;;;4959543;28;20033;-89
2021/04/29 11:08:41;;;;;;;2.75;1.48;;;17.40;75.80;;;;;;4973875;28;20565;-88
2021/04/29 11:11:28;;;;;;;1.70;1.60;;;17.30;75.00;;;;;;4962641;28;20514;-88
2021/04/29 11:14:16;;;;;;;3.13;1.60;;;17.20;77.00;;;;;;4969216;28;20518;-88
2021/04/29 11:17:00;;;;;;;3.10;2.15;;;17.10;79.40;;;;;;4965319;28;20035;-91
2021/04/29 11:19:41;;;;;;;1.52;1.42;;;17.10;77.50;;;;;;4967703;28;20038;-88
2021/04/29 11:22:10;;;;;;;3.88;2.15;;;17.20;76.10;;;;;;4966693;28;20054;-88
2021/04/29 11:24:46;;;;;;;2.15;1.50;;;17.10;74.90;;;;;;4977937;28;20031;-89
2021/04/29 11:27:39;;;;;;;1.75;1.45;;;17.00;78.50;;;;;;4979871;28;20023;-89
2021/04/29 11:30:07;;;;;;;3.72;1.85;;;17.00;80.30;;;;;;4947759;28;20046;-88
2021/04/29 11:32:34;;;;;;;3.00;1.70;;;17.10;77.70;;;;;;4981472;28;20050;-88
2021/04/29 11:35:05;;;;;;;2.22;1.52;;;17.30;77.30;;;;;;4983736;28;20038;-89
2021/04/29 11:37:42;;;;;;;5.07;1.70;;;17.40;77.50;;;;;;4983758;28;20031;-88
2021/04/29 11:40:10;;;;;;;1.58;1.48;;;17.60;74.60;;;;;;4983668;28;20027;-88
2021/04/29 11:42:36;;;;;;;2.33;1.50;;;17.80;73.10;;;;;;4982722;28;20037;-89
2021/04/29 11:45:28;;;;;;;1.90;1.80;;;17.90;73.10;;;;;;4980724;28;20034;-87
2021/04/29 11:48:04;;;;;;;2.15;1.95;;;18.00;75.10;;;;;;4961943;28;20097;-88
2021/04/29 11:50:36;;;;;;;3.85;2.80;;;18.10;73.80;;;;;;4971170;28;20031;-89
2021/04/29 11:53:12;;;;;;;2.17;1.48;;;18.20;71.10;;;;;;4984709;28;20174;-89
2021/04/29 11:55:47;;;;;;;1.55;1.42;;;18.40;74.00;;;;;;4983445;28;20029;-89
2021/04/29 11:58:16;;;;;;;2.63;2.03;;;18.70;68.10;;;;;;4965211;28;20094;-92
2021/04/29 12:00:48;;;;;;;2.38;1.80;;;18.50;68.40;;;;;;4974020;28;20078;-88
2021/04/29 12:03:15;;;;;;;1.88;1.77;;;18.20;68.90;;;;;;4968067;28;20081;-90
2021/04/29 12:05:44;;;;;;;2.22;1.90;;;17.90;71.10;;;;;;4984850;28;20081;-88
2021/04/29 12:08:25;;;;;;;3.50;1.70;;;17.70;68.50;;;;;;4982433;28;20055;-89
2021/04/29 12:10:56;;;;;;;2.08;1.50;;;17.40;67.10;;;;;;4977271;28;20508;-88
2021/04/29 12:13:37;;;;;;;3.13;2.40;;;17.20;69.00;;;;;;4979284;28;20081;-87
2021/04/29 12:16:11;;;;;;;4.38;2.20;;;17.00;71.50;;;;;;4980943;28;20041;-86
2021/04/29 12:18:47;;;;;;;2.67;1.58;;;16.80;72.50;;;;;;4981383;28;20397;-86
2021/04/29 12:21:14;;;;;;;1.80;1.65;;;16.70;74.20;;;;;;4979661;28;20054;-89
2021/04/29 12:23:39;;;;;;;2.92;1.60;;;16.60;76.70;;;;;;4963686;28;20038;-88
2021/04/29 12:26:08;;;;;;;2.97;1.88;;;16.70;74.20;;;;;;4968843;28;20770;-91
2021/04/29 12:28:39;;;;;;;6.53;2.10;;;16.90;73.80;;;;;;4950858;28;20208;-86
2021/04/29 12:31:16;;;;;;;2.53;2.22;;;16.90;76.40;;;;;;4985178;28;20031;-87
2021/04/29 12:34:05;;;;;;;4.20;1.98;;;16.90;75.00;;;;;;4981699;28;20955;-87
2021/04/29 12:36:36;;;;;;;1.70;1.60;;;16.90;74.30;;;;;;4984039;28;20038;-87
2021/04/29 12:39:25;;;;;;;1.75;1.50;;;16.90;74.60;;;;;;4977108;28;20045;-88
2021/04/29 12:42:07;;;;;;;2.38;2.17;;;17.00;75.30;;;;;;4986632;28;20035;-87
2021/04/29 12:44:39;;;;;;;3.72;2.63;;;17.00;75.50;;;;;;4957718;28;20437;-87
2021/04/29 12:47:07;;;;;;;4.03;2.30;;;17.10;75.90;;;;;;4970862;28;20470;-86
2021/04/29 12:49:33;;;;;;;2.33;2.13;;;17.10;75.30;;;;;;4961531;28;20022;-88
2021/04/29 12:52:10;;;;;;;4.18;2.40;;;17.20;74.00;;;;;;4968916;28;20035;-88
2021/04/29 12:54:37;;;;;;;2.90;2.65;;;17.10;74.20;;;;;;4979510;28;20485;-90
2021/04/29 12:57:03;;;;;;;6.00;3.38;;;16.90;76.10;;;;;;4981412;28;20063;-87